createdAt,value
2023-08-29T00:00:53.868Z,15.13
2023-08-29T00:03:25.693Z,15.03
2023-08-29T00:06:01.764Z,15.00
2023-08-29T00:08:34.037Z,15.08
2023-08-29T00:11:06.343Z,15.32
2023-08-29T00:13:36.206Z,15.27
2023-08-29T00:16:07.113Z,15.15
2023-08-29T00:18:34.789Z,15.18
2023-08-29T00:21:03.455Z,15.27
2023-08-29T00:23:31.650Z,15.12
2023-08-29T00:25:59.593Z,15.18
2023-08-29T00:28:27.311Z,15.09
2023-08-29T00:31:00.410Z,15.10
2023-08-29T00:33:28.623Z,15.18
2023-08-29T00:35:59.172Z,15.13
2023-08-29T00:38:30.842Z,15.02
2023-08-29T00:41:00.665Z,14.88
2023-08-29T00:43:30.669Z,15.12
2023-08-29T00:46:02.816Z,15.15
2023-08-29T00:48:33.287Z,15.29
2023-08-29T00:51:05.835Z,15.14
2023-08-29T00:53:38.473Z,14.96
2023-08-29T00:56:07.302Z,14.97
2023-08-29T00:58:37.314Z,15.06
2023-08-29T01:01:09.019Z,15.12
2023-08-29T01:03:41.071Z,14.89
2023-08-29T01:06:13.586Z,14.97
2023-08-29T01:08:45.769Z,14.95
2023-08-29T01:11:39.810Z,14.85
2023-08-29T01:14:10.298Z,14.90
2023-08-29T01:16:44.368Z,14.89
2023-08-29T01:19:18.287Z,14.93
2023-08-29T01:21:56.621Z,14.87
2023-08-29T01:24:31.477Z,14.90
2023-08-29T01:27:02.165Z,15.00
2023-08-29T01:29:33.365Z,14.96
2023-08-29T01:32:03.172Z,14.80
2023-08-29T01:34:31.009Z,14.73
2023-08-29T01:37:00.026Z,14.82
2023-08-29T01:39:28.865Z,14.53
2023-08-29T01:41:56.842Z,14.64
2023-08-29T01:44:33.543Z,14.42
2023-08-29T01:47:03.948Z,14.50
2023-08-29T01:49:34.626Z,14.47
2023-08-29T01:52:05.129Z,14.45
2023-08-29T01:54:38.340Z,14.43
2023-08-29T01:57:12.755Z,14.33
2023-08-29T01:59:44.918Z,14.41
2023-08-29T02:02:16.828Z,14.35
2023-08-29T02:04:47.707Z,14.19
2023-08-29T02:07:23.173Z,14.27
2023-08-29T02:09:53.333Z,14.30
2023-08-29T02:12:22.513Z,14.38
2023-08-29T02:14:50.644Z,14.33
2023-08-29T02:17:19.624Z,14.05
2023-08-29T02:19:49.097Z,14.12
2023-08-29T02:22:21.487Z,14.22
2023-08-29T02:24:51.477Z,14.30
2023-08-29T02:27:22.589Z,13.92
2023-08-29T02:29:53.973Z,14.06
2023-08-29T02:32:22.992Z,14.01
2023-08-29T02:34:57.212Z,14.06
2023-08-29T02:37:29.055Z,13.89
2023-08-29T02:40:00.319Z,13.89
2023-08-29T02:42:35.196Z,13.98
2023-08-29T02:45:07.960Z,14.03
2023-08-29T02:47:38.750Z,14.04
2023-08-29T02:50:07.931Z,14.01
2023-08-29T02:52:37.026Z,14.09
2023-08-29T02:55:07.752Z,13.89
2023-08-29T02:57:37.332Z,13.81
2023-08-29T03:00:07.272Z,13.87
2023-08-29T03:02:36.341Z,13.91
2023-08-29T03:05:04.304Z,13.75
2023-08-29T03:07:34.769Z,13.90
2023-08-29T03:10:02.469Z,13.93
2023-08-29T03:12:34.278Z,13.77
2023-08-29T03:15:02.397Z,13.69
2023-08-29T03:17:31.121Z,13.78
2023-08-29T03:20:01.868Z,14.01
2023-08-29T03:22:31.327Z,13.86
2023-08-29T03:25:00.191Z,13.75
2023-08-29T03:27:30.065Z,13.73
2023-08-29T03:30:00.969Z,13.80
2023-08-29T03:32:29.887Z,13.98
2023-08-29T03:35:00.061Z,13.81
2023-08-29T03:37:29.254Z,13.96
2023-08-29T03:40:01.281Z,13.92
2023-08-29T03:42:32.110Z,13.90
2023-08-29T03:45:00.085Z,14.05
2023-08-29T03:47:28.106Z,14.22
2023-08-29T03:49:56.089Z,14.04
2023-08-29T03:52:31.288Z,13.90
2023-08-29T03:55:00.977Z,14.10
2023-08-29T03:57:30.546Z,14.21
2023-08-29T04:00:08.240Z,13.88
2023-08-29T04:02:47.140Z,13.83
2023-08-29T04:05:16.319Z,13.88
2023-08-29T04:07:45.850Z,13.85
2023-08-29T04:10:14.395Z,13.85
2023-08-29T04:12:47.202Z,13.79
2023-08-29T04:15:15.239Z,13.87
2023-08-29T04:17:46.354Z,13.96
2023-08-29T04:20:17.669Z,13.90
2023-08-29T04:22:49.055Z,13.87
2023-08-29T04:25:17.598Z,13.84
2023-08-29T04:27:49.212Z,14.02
2023-08-29T04:30:17.536Z,13.95
2023-08-29T04:32:46.076Z,13.86
2023-08-29T04:35:16.183Z,13.84
2023-08-29T04:37:48.534Z,13.75
2023-08-29T04:40:18.127Z,13.80
2023-08-29T04:42:47.216Z,13.90
2023-08-29T04:45:18.081Z,13.88
2023-08-29T04:47:46.185Z,14.01
2023-08-29T04:50:15.682Z,14.12
2023-08-29T04:52:44.508Z,14.06
2023-08-29T04:55:12.026Z,14.15
2023-08-29T04:57:41.060Z,14.24
2023-08-29T05:00:14.123Z,14.00
2023-08-29T05:02:43.734Z,14.01
2023-08-29T05:05:15.942Z,14.04
2023-08-29T05:07:47.230Z,13.85
2023-08-29T05:10:17.845Z,14.04
2023-08-29T05:12:45.811Z,14.14
2023-08-29T05:15:15.148Z,14.06
2023-08-29T05:17:44.333Z,14.23
2023-08-29T05:20:12.683Z,14.23
2023-08-29T05:22:43.471Z,14.20
2023-08-29T05:25:12.215Z,14.31
2023-08-29T05:27:42.489Z,14.32
2023-08-29T05:30:15.388Z,14.21
2023-08-29T05:32:46.192Z,14.35
2023-08-29T05:35:15.996Z,14.42
2023-08-29T05:37:47.265Z,14.31
2023-08-29T05:40:16.078Z,14.24
2023-08-29T05:42:44.766Z,14.38
2023-08-29T05:45:14.874Z,14.35
2023-08-29T05:47:43.894Z,14.36
2023-08-29T05:50:16.082Z,14.34
2023-08-29T05:52:46.474Z,14.31
2023-08-29T05:55:16.945Z,14.37
2023-08-29T05:57:53.062Z,14.40
2023-08-29T06:00:22.958Z,14.30
2023-08-29T06:02:53.298Z,14.43
2023-08-29T06:05:21.215Z,14.39
2023-08-29T06:07:49.641Z,14.44
2023-08-29T06:10:17.284Z,14.23
2023-08-29T06:12:48.502Z,14.23
2023-08-29T06:15:17.101Z,14.30
2023-08-29T06:17:46.391Z,14.37
2023-08-29T06:20:15.446Z,14.28
2023-08-29T06:22:45.532Z,14.53
2023-08-29T06:25:13.599Z,14.64
2023-08-29T06:27:41.420Z,14.41
2023-08-29T06:30:14.709Z,14.44
2023-08-29T06:32:45.364Z,14.47
2023-08-29T06:35:14.150Z,14.45
2023-08-29T06:37:42.444Z,14.33
2023-08-29T06:40:11.855Z,14.34
2023-08-29T06:42:42.103Z,14.23
2023-08-29T06:45:14.673Z,14.30
2023-08-29T06:47:44.216Z,14.45
2023-08-29T06:50:13.686Z,14.52
2023-08-29T06:52:42.981Z,14.49
2023-08-29T06:55:13.186Z,14.23
2023-08-29T06:57:41.365Z,14.08
2023-08-29T07:00:14.337Z,14.14
2023-08-29T07:02:42.313Z,14.26
2023-08-29T07:05:11.272Z,14.12
2023-08-29T07:07:42.013Z,14.15
2023-08-29T07:10:12.246Z,14.24
2023-08-29T07:12:43.472Z,14.49
2023-08-29T07:15:14.060Z,14.43
2023-08-29T07:17:46.261Z,14.59
2023-08-29T07:20:17.127Z,14.49
2023-08-29T07:22:45.260Z,14.72
2023-08-29T07:25:14.557Z,14.48
2023-08-29T07:27:43.686Z,14.45
2023-08-29T07:30:16.358Z,14.41
2023-08-29T07:32:45.402Z,14.30
2023-08-29T07:35:15.665Z,14.34
2023-08-29T07:37:44.441Z,14.46
2023-08-29T07:40:12.673Z,14.40
2023-08-29T07:42:40.454Z,14.56
2023-08-29T07:45:08.937Z,14.68
2023-08-29T07:47:38.333Z,14.70
2023-08-29T07:50:07.149Z,14.60
2023-08-29T07:52:37.097Z,14.65
2023-08-29T07:55:08.836Z,14.79
2023-08-29T07:57:40.322Z,14.84
2023-08-29T08:00:12.183Z,14.52
2023-08-29T08:02:42.823Z,14.50
2023-08-29T08:05:17.346Z,14.74
2023-08-29T08:07:50.461Z,14.93
2023-08-29T08:10:19.702Z,14.82
2023-08-29T08:12:49.463Z,14.86
2023-08-29T08:15:17.863Z,14.55
2023-08-29T08:17:55.489Z,14.63
2023-08-29T08:20:26.047Z,14.45
2023-08-29T08:22:56.149Z,14.63
2023-08-29T08:25:24.934Z,14.72
2023-08-29T08:27:55.016Z,14.84
2023-08-29T08:30:23.468Z,15.01
2023-08-29T08:32:52.426Z,14.98
2023-08-29T08:35:21.563Z,14.93
2023-08-29T08:37:51.754Z,15.00
2023-08-29T08:40:22.499Z,14.98
2023-08-29T08:42:52.944Z,15.19
2023-08-29T08:45:24.092Z,15.29
2023-08-29T08:47:52.446Z,15.14
2023-08-29T08:50:25.516Z,15.17
2023-08-29T08:52:58.599Z,15.34
2023-08-29T08:55:30.357Z,15.00
2023-08-29T08:57:59.932Z,15.01
2023-08-29T09:00:31.004Z,14.98
2023-08-29T09:02:59.651Z,14.86
2023-08-29T09:05:30.267Z,14.89
2023-08-29T09:08:05.312Z,15.04
2023-08-29T09:10:34.952Z,15.13
2023-08-29T09:13:04.913Z,15.04
2023-08-29T09:15:37.281Z,14.96
2023-08-29T09:18:07.751Z,14.72
2023-08-29T09:20:35.997Z,14.76
2023-08-29T09:23:21.190Z,14.96
2023-08-29T09:26:05.961Z,15.15
2023-08-29T09:28:34.294Z,15.19
2023-08-29T09:31:10.975Z,15.26
2023-08-29T09:33:42.905Z,15.46
2023-08-29T09:36:17.659Z,15.14
2023-08-29T09:38:48.953Z,15.06
2023-08-29T09:41:19.644Z,15.24
2023-08-29T09:43:53.916Z,15.20
2023-08-29T09:46:30.810Z,15.23
2023-08-29T09:48:59.179Z,15.03
2023-08-29T09:51:30.284Z,15.03
2023-08-29T09:54:00.764Z,15.10
2023-08-29T09:56:31.647Z,15.13
2023-08-29T09:59:02.299Z,15.37
2023-08-29T10:01:33.039Z,15.66
2023-08-29T10:04:07.416Z,15.46
2023-08-29T10:06:38.560Z,15.32
2023-08-29T10:09:11.541Z,15.30
2023-08-29T10:11:53.506Z,15.23
2023-08-29T10:14:29.014Z,15.47
2023-08-29T10:17:00.077Z,15.71
2023-08-29T10:19:31.051Z,15.52
2023-08-29T10:22:05.615Z,15.55
2023-08-29T10:24:35.938Z,15.68
2023-08-29T10:27:07.208Z,15.76
2023-08-29T10:29:39.683Z,16.04
2023-08-29T10:32:11.342Z,15.95
2023-08-29T10:34:44.261Z,15.88
2023-08-29T10:37:23.574Z,15.82
2023-08-29T10:39:53.590Z,15.90
2023-08-29T10:42:24.783Z,16.18
2023-08-29T10:44:53.479Z,15.80
2023-08-29T10:47:34.636Z,15.80
2023-08-29T10:50:07.805Z,15.72
2023-08-29T10:52:43.998Z,15.83
2023-08-29T10:55:24.552Z,15.82
2023-08-29T10:57:56.060Z,15.58
2023-08-29T11:00:52.637Z,15.48
2023-08-29T11:03:49.880Z,15.68
2023-08-29T11:06:20.089Z,15.59
2023-08-29T11:08:48.295Z,15.52
2023-08-29T11:11:18.935Z,15.65
2023-08-29T11:14:08.595Z,15.46
2023-08-29T11:16:38.465Z,15.61
2023-08-29T11:19:15.857Z,15.43
2023-08-29T11:21:51.350Z,15.73
2023-08-29T11:24:22.566Z,15.93
2023-08-29T11:26:51.593Z,16.36
2023-08-29T11:29:19.781Z,16.26
2023-08-29T11:31:48.582Z,16.50
2023-08-29T11:34:23.106Z,16.69
2023-08-29T11:36:54.224Z,16.71
2023-08-29T11:39:23.762Z,16.78
2023-08-29T11:42:06.355Z,16.46
2023-08-29T11:45:08.421Z,16.20
2023-08-29T11:47:30.773Z,16.16
2023-08-29T11:50:00.561Z,16.22
2023-08-29T11:52:32.966Z,16.78
2023-08-29T11:55:05.356Z,16.62
2023-08-29T11:57:33.897Z,16.48
2023-08-29T12:00:01.831Z,16.97
2023-08-29T12:02:34.703Z,16.71
2023-08-29T12:05:11.680Z,16.57
2023-08-29T12:07:39.664Z,16.24
2023-08-29T12:10:17.357Z,16.28
2023-08-29T12:13:14.586Z,16.29
2023-08-29T12:15:47.007Z,16.27
2023-08-29T12:18:24.969Z,16.28
2023-08-29T12:21:09.939Z,16.26
2023-08-29T12:23:38.256Z,16.57
2023-08-29T12:26:07.026Z,16.75
2023-08-29T12:28:35.246Z,16.84
2023-08-29T12:31:03.791Z,16.60
2023-08-29T12:33:32.430Z,16.94
2023-08-29T12:36:01.118Z,16.82
2023-08-29T12:38:33.779Z,16.67
2023-08-29T12:41:02.264Z,16.62
2023-08-29T12:43:29.846Z,17.01
2023-08-29T12:46:00.616Z,17.29
2023-08-29T12:48:29.058Z,17.26
2023-08-29T12:50:58.725Z,17.08
2023-08-29T12:53:26.899Z,17.44
2023-08-29T12:55:56.848Z,17.30
2023-08-29T12:58:24.949Z,17.27
2023-08-29T13:00:54.073Z,17.34
2023-08-29T13:03:23.619Z,17.53
2023-08-29T13:05:54.101Z,17.51
2023-08-29T13:08:22.212Z,17.43
2023-08-29T13:10:51.565Z,17.99
2023-08-29T13:13:19.808Z,17.94
2023-08-29T13:15:51.664Z,18.22
2023-08-29T13:18:19.902Z,18.19
2023-08-29T13:20:49.288Z,18.32
2023-08-29T13:23:17.036Z,18.38
2023-08-29T13:25:45.115Z,18.26
2023-08-29T13:28:13.312Z,18.38
2023-08-29T13:30:41.280Z,17.95
2023-08-29T13:33:09.377Z,17.60
2023-08-29T13:35:39.302Z,18.00
2023-08-29T13:38:08.263Z,17.70
2023-08-29T13:40:44.046Z,17.79
2023-08-29T13:43:14.817Z,17.73
2023-08-29T13:45:43.260Z,17.63
2023-08-29T13:48:17.589Z,17.38
2023-08-29T13:50:48.544Z,17.54
2023-08-29T13:53:18.793Z,18.06
2023-08-29T13:55:48.452Z,18.18
2023-08-29T13:58:20.928Z,17.99
2023-08-29T14:00:52.839Z,18.04
2023-08-29T14:03:33.355Z,18.09
2023-08-29T14:06:07.349Z,18.34
2023-08-29T14:11:20.294Z,18.60
2023-08-29T14:13:48.051Z,18.43
2023-08-29T14:16:18.461Z,18.18
2023-08-29T14:18:47.334Z,18.47
2023-08-29T14:21:15.258Z,18.19
2023-08-29T14:23:43.583Z,17.93
2023-08-29T14:26:15.407Z,18.30
2023-08-29T14:28:43.308Z,18.21
2023-08-29T14:31:10.950Z,18.29
2023-08-29T14:33:40.026Z,18.20
2023-08-29T14:36:09.154Z,18.43
2023-08-29T14:38:36.907Z,18.74
2023-08-29T14:41:15.476Z,18.29
2023-08-29T14:43:43.167Z,18.57
2023-08-29T14:46:10.741Z,18.53
2023-08-29T14:48:39.500Z,18.26
2023-08-29T14:51:08.225Z,18.28
2023-08-29T14:53:40.190Z,18.35
2023-08-29T14:56:10.785Z,18.61
2023-08-29T14:58:47.905Z,18.73
2023-08-29T15:01:15.505Z,18.52
2023-08-29T15:03:47.832Z,18.59
2023-08-29T15:06:17.754Z,18.81
2023-08-29T15:08:49.293Z,18.49
2023-08-29T15:11:21.519Z,18.49
2023-08-29T15:13:49.136Z,18.28
2023-08-29T15:16:17.315Z,18.40
2023-08-29T15:18:49.298Z,18.32
2023-08-29T15:21:20.306Z,18.33
2023-08-29T15:23:48.199Z,18.31
2023-08-29T15:26:17.806Z,18.21
2023-08-29T15:28:45.811Z,18.10
2023-08-29T15:31:13.461Z,18.28
2023-08-29T15:33:43.652Z,18.40
2023-08-29T15:36:13.825Z,18.44
2023-08-29T15:38:41.704Z,18.02
2023-08-29T15:41:09.728Z,18.34
2023-08-29T15:43:37.669Z,18.50
2023-08-29T15:46:11.684Z,18.12
2023-08-29T15:48:40.817Z,18.25
2023-08-29T15:51:14.460Z,18.27
2023-08-29T15:53:51.359Z,18.05
2023-08-29T15:56:22.008Z,18.03
2023-08-29T15:58:52.241Z,18.39
2023-08-29T16:01:22.858Z,18.26
2023-08-29T16:03:52.228Z,18.21
2023-08-29T16:06:22.577Z,18.38
2023-08-29T16:08:51.157Z,18.40
2023-08-29T16:11:23.640Z,18.59
2023-08-29T16:13:54.457Z,18.43
2023-08-29T16:16:22.254Z,17.92
2023-08-29T16:18:49.779Z,17.87
2023-08-29T16:21:18.049Z,17.77
2023-08-29T16:23:46.650Z,18.00
2023-08-29T16:26:19.083Z,18.05
2023-08-29T16:28:48.165Z,18.14
2023-08-29T16:31:20.014Z,17.92
2023-08-29T16:33:48.042Z,17.79
2023-08-29T16:36:17.137Z,17.69
2023-08-29T16:38:47.118Z,17.81
2023-08-29T16:41:18.846Z,17.58
2023-08-29T16:43:49.343Z,17.64
2023-08-29T16:46:17.938Z,17.81
2023-08-29T16:48:46.506Z,17.91
2023-08-29T16:51:17.097Z,17.71
2023-08-29T16:53:46.927Z,17.86
2023-08-29T16:56:16.077Z,17.89
2023-08-29T16:58:51.193Z,17.77
2023-08-29T17:01:20.596Z,17.75
2023-08-29T17:03:49.146Z,17.90
2023-08-29T17:06:16.746Z,17.81
2023-08-29T17:08:44.416Z,17.96
2023-08-29T17:11:12.335Z,17.92
2023-08-29T17:13:42.308Z,18.00
2023-08-29T17:16:11.318Z,17.80
2023-08-29T17:18:42.144Z,17.74
2023-08-29T17:21:11.230Z,17.76
2023-08-29T17:23:39.963Z,17.82
2023-08-29T17:26:10.587Z,17.81
2023-08-29T17:28:41.230Z,17.80
2023-08-29T17:31:13.081Z,17.66
2023-08-29T17:33:45.502Z,17.72
2023-08-29T17:36:16.834Z,17.81
2023-08-29T17:38:46.945Z,17.80
2023-08-29T17:41:15.737Z,17.69
2023-08-29T17:43:48.256Z,17.64
2023-08-29T17:46:17.006Z,17.56
2023-08-29T17:48:45.882Z,17.60
2023-08-29T17:51:14.795Z,17.62
2023-08-29T17:53:43.425Z,17.43
2023-08-29T17:56:12.014Z,17.47
2023-08-29T17:58:41.251Z,17.47
2023-08-29T18:01:10.405Z,17.36
2023-08-29T18:03:39.769Z,17.29
2023-08-29T18:06:22.688Z,17.36
2023-08-29T18:08:55.157Z,17.40
2023-08-29T18:11:25.279Z,17.37
2023-08-29T18:13:54.274Z,17.34
2023-08-29T18:16:24.174Z,17.15
2023-08-29T18:18:53.264Z,17.12
2023-08-29T18:21:21.384Z,17.19
2023-08-29T18:23:52.748Z,17.01
2023-08-29T18:26:23.524Z,16.88
2023-08-29T18:28:58.575Z,17.05
2023-08-29T18:34:11.890Z,17.16
2023-08-29T18:36:45.794Z,17.16
2023-08-29T18:39:13.579Z,16.86
2023-08-29T18:41:45.853Z,16.88
2023-08-29T18:44:13.338Z,16.86
2023-08-29T18:46:42.247Z,16.91
2023-08-29T18:49:12.184Z,16.80
2023-08-29T18:51:40.775Z,16.82
2023-08-29T18:54:08.590Z,16.75
2023-08-29T18:56:36.454Z,16.71
2023-08-29T18:59:05.338Z,16.66
2023-08-29T19:01:33.888Z,16.60
2023-08-29T19:04:03.709Z,16.68
2023-08-29T19:06:37.636Z,16.63
2023-08-29T19:09:05.182Z,16.49
2023-08-29T19:11:33.808Z,16.42
2023-08-29T19:14:02.239Z,16.45
2023-08-29T19:16:30.749Z,16.43
2023-08-29T19:18:59.689Z,16.27
2023-08-29T19:21:28.705Z,16.45
2023-08-29T19:23:59.565Z,16.38
2023-08-29T19:26:29.685Z,16.39
2023-08-29T19:28:58.088Z,16.39
2023-08-29T19:31:26.004Z,16.40
2023-08-29T19:34:05.978Z,16.24
2023-08-29T19:36:36.117Z,16.40
2023-08-29T19:39:16.973Z,16.36
2023-08-29T19:41:46.205Z,16.34
2023-08-29T19:44:18.329Z,16.29
2023-08-29T19:46:47.875Z,16.15
2023-08-29T19:49:16.116Z,16.14
2023-08-29T19:51:45.879Z,16.02
2023-08-29T19:54:14.485Z,16.01
2023-08-29T19:56:43.824Z,16.15
2023-08-29T19:59:11.815Z,16.05
2023-08-29T20:01:39.624Z,15.98
2023-08-29T20:04:07.873Z,16.12
2023-08-29T20:06:39.015Z,16.10
2023-08-29T20:09:06.780Z,16.11
2023-08-29T20:11:34.642Z,16.03
2023-08-29T20:14:03.980Z,16.01
2023-08-29T20:16:34.730Z,16.27
2023-08-29T20:22:00.586Z,16.51
2023-08-29T20:24:31.492Z,16.35
2023-08-29T20:27:00.157Z,16.21
2023-08-29T20:29:32.390Z,16.16
2023-08-29T20:32:08.220Z,16.16
2023-08-29T20:34:42.041Z,16.32
2023-08-29T20:37:11.562Z,16.30
2023-08-29T20:39:41.985Z,16.24
2023-08-29T20:42:17.405Z,16.12
2023-08-29T20:44:48.388Z,16.14
2023-08-29T20:47:25.965Z,16.40
2023-08-29T20:49:54.626Z,16.20
2023-08-29T20:52:27.631Z,16.22
2023-08-29T20:54:57.054Z,16.22
2023-08-29T20:57:24.957Z,16.24
2023-08-29T20:59:52.898Z,16.09
2023-08-29T21:02:20.616Z,16.01
2023-08-29T21:04:52.004Z,15.94
2023-08-29T21:07:20.307Z,15.89
2023-08-29T21:09:52.199Z,15.91
2023-08-29T21:12:23.875Z,15.97
2023-08-29T21:14:52.359Z,15.81
2023-08-29T21:17:23.567Z,15.90
2023-08-29T21:19:52.750Z,15.91
2023-08-29T21:22:20.872Z,15.88
2023-08-29T21:24:53.047Z,15.85
2023-08-29T21:27:23.979Z,15.85
2023-08-29T21:29:52.296Z,15.89
2023-08-29T21:32:21.023Z,15.88
2023-08-29T21:34:51.726Z,15.87
2023-08-29T21:37:22.126Z,15.76
2023-08-29T21:39:51.471Z,15.90
2023-08-29T21:42:21.574Z,15.98
2023-08-29T21:44:54.824Z,15.91
2023-08-29T21:47:23.922Z,15.90
2023-08-29T21:49:54.225Z,15.79
2023-08-29T21:52:26.728Z,15.62
2023-08-29T21:54:54.317Z,15.64
2023-08-29T21:57:23.871Z,15.54
2023-08-29T21:59:55.596Z,15.60
2023-08-29T22:02:26.019Z,15.57
2023-08-29T22:04:55.844Z,15.49
2023-08-29T22:07:25.101Z,15.50
2023-08-29T22:09:55.277Z,15.49
2023-08-29T22:12:24.828Z,15.43
2023-08-29T22:14:56.929Z,15.30
2023-08-29T22:17:25.080Z,15.27
2023-08-29T22:19:54.772Z,15.15
2023-08-29T22:22:23.550Z,15.24
2023-08-29T22:24:51.388Z,15.39
2023-08-29T22:27:20.363Z,15.32
2023-08-29T22:29:49.659Z,15.26
2023-08-29T22:32:19.334Z,15.22
2023-08-29T22:34:49.153Z,15.29
2023-08-29T22:37:17.396Z,15.24
2023-08-29T22:39:48.628Z,15.35
2023-08-29T22:42:20.618Z,15.35
2023-08-29T22:44:48.478Z,15.24
2023-08-29T22:47:17.713Z,15.22
2023-08-29T22:49:49.137Z,15.24
2023-08-29T22:52:25.846Z,15.37
2023-08-29T22:54:57.064Z,15.32
2023-08-29T22:57:24.890Z,15.27
2023-08-29T22:59:53.272Z,15.10
2023-08-29T23:02:24.492Z,15.23
2023-08-29T23:05:11.805Z,15.21
2023-08-29T23:07:41.183Z,15.23
2023-08-29T23:10:14.462Z,15.20
2023-08-29T23:12:45.584Z,15.12
2023-08-29T23:15:16.563Z,15.06
2023-08-29T23:17:47.177Z,14.98
2023-08-29T23:20:16.697Z,14.93
2023-08-29T23:22:45.899Z,14.98
2023-08-29T23:25:17.351Z,15.01
2023-08-29T23:27:47.097Z,14.95
2023-08-29T23:30:19.843Z,14.89
2023-08-29T23:32:49.671Z,14.97
2023-08-29T23:35:21.056Z,15.02
2023-08-29T23:37:49.888Z,14.99
2023-08-29T23:40:26.777Z,15.00
2023-08-29T23:42:54.752Z,14.87
2023-08-29T23:45:22.835Z,14.96
2023-08-29T23:47:50.444Z,14.82
2023-08-29T23:50:18.943Z,14.76
2023-08-29T23:52:46.794Z,14.75
2023-08-29T23:55:15.814Z,14.64
2023-08-29T23:57:45.055Z,14.76
